Time;durP1;ratioP1;P1;durP2;ratioP2;P2;SDS_P1;SDS_P2;PMS_P1;PMS_P2;Temp;Humidity;BMP_temperature;BMP_pressure;BME280_temperature;BME280_humidity;BME280_pressure;Samples;Min_cycle;Max_cycle;Signal;HPM_P1;HPM_P2
2021/05/01 00:00:15;;;;;;;12.13;9.90;;;;;;;7.22;82.66;101538.69;4941880;29;20062;-80
2021/05/01 00:02:43;;;;;;;13.32;9.13;;;;;;;7.20;82.50;101533.56;4904243;29;20043;-80
2021/05/01 00:05:09;;;;;;;11.30;8.63;;;;;;;7.27;82.46;101541.81;4932782;29;20067;-79
2021/05/01 00:07:35;;;;;;;13.20;9.27;;;;;;;7.21;82.51;101527.44;4938520;29;20119;-79
2021/05/01 00:10:00;;;;;;;11.82;9.45;;;;;;;7.28;82.46;101540.88;4910905;29;20539;-81
2021/05/01 00:12:25;;;;;;;13.05;9.73;;;;;;;7.29;82.52;101536.47;4894723;29;20547;-79
2021/05/01 00:14:51;;;;;;;11.35;9.40;;;;;;;7.27;82.70;101540.97;4910639;29;20060;-80
2021/05/01 00:17:17;;;;;;;13.27;9.85;;;;;;;7.24;82.21;101533.38;4896145;29;20067;-80
2021/05/01 00:19:42;;;;;;;11.30;9.45;;;;;;;7.22;82.40;101531.69;4929511;29;20051;-79
2021/05/01 00:22:08;;;;;;;15.60;9.57;;;;;;;7.26;82.71;101534.09;4912979;29;20052;-79
2021/05/01 00:24:34;;;;;;;12.07;9.35;;;;;;;7.21;82.72;101532.66;4894138;29;20048;-79
2021/05/01 00:26:59;;;;;;;11.85;9.10;;;;;;;7.21;83.31;101540.47;4924875;29;20059;-78
2021/05/01 00:29:25;;;;;;;13.65;9.05;;;;;;;7.14;83.59;101531.38;4893656;29;20071;-80
2021/05/01 00:31:50;;;;;;;12.45;9.20;;;;;;;7.14;83.29;101528.78;4908375;29;20059;-79
2021/05/01 00:34:16;;;;;;;11.38;9.07;;;;;;;7.17;83.38;101540.78;4895544;29;20515;-79
2021/05/01 00:36:41;;;;;;;11.52;9.18;;;;;;;7.13;83.41;101532.31;4899696;29;20056;-74
2021/05/01 00:39:07;;;;;;;10.70;9.00;;;;;;;7.14;83.98;101535.75;4896982;29;20088;-80
2021/05/01 00:41:33;;;;;;;12.82;8.70;;;;;;;7.08;83.67;101531.78;4900855;29;20555;-79
2021/05/01 00:44:03;;;;;;;10.90;9.25;;;;;;;7.10;82.84;101529.94;4912778;29;20048;-80
2021/05/01 00:46:28;;;;;;;13.40;8.90;;;;;;;7.10;83.36;101529.06;4900518;29;20036;-78
2021/05/01 00:48:54;;;;;;;11.27;8.57;;;;;;;7.15;83.41;101534.81;4915328;29;20114;-83
2021/05/01 00:51:19;;;;;;;11.65;8.45;;;;;;;7.10;83.40;101529.94;4884604;29;20048;-81
2021/05/01 00:53:45;;;;;;;11.40;8.55;;;;;;;7.06;83.06;101519.78;4897348;29;20048;-80
2021/05/01 00:56:11;;;;;;;11.93;9.23;;;;;;;7.09;83.05;101536.06;4892060;29;20039;-81
2021/05/01 00:58:36;;;;;;;11.88;8.50;;;;;;;7.09;83.18;101533.47;4887742;29;20605;-81
2021/05/01 01:03:36;;;;;;;12.07;9.40;;;;;;;7.01;83.83;101518.34;4884300;29;20064;-80
2021/05/01 01:06:02;;;;;;;11.13;9.73;;;;;;;7.05;82.89;101518.16;4897929;29;20172;-78
2021/05/01 01:08:28;;;;;;;10.43;8.90;;;;;;;7.04;83.27;101516.47;4882374;29;20047;-78
2021/05/01 01:10:54;;;;;;;11.75;9.10;;;;;;;7.00;83.25;101510.63;4880140;29;20046;-82
2021/05/01 01:13:21;;;;;;;16.85;9.25;;;;;;;6.97;83.31;101513.44;4880449;29;20526;-81
2021/05/01 01:15:46;;;;;;;11.73;8.95;;;;;;;6.94;83.18;101505.81;4911731;29;20122;-79
2021/05/01 01:18:12;;;;;;;11.85;8.82;;;;;;;6.99;82.73;101516.78;4889666;29;20651;-79
2021/05/01 01:20:38;;;;;;;12.85;9.32;;;;;;;6.93;83.44;101509.34;4918037;29;20451;-79
2021/05/01 01:23:04;;;;;;;12.73;9.15;;;;;;;6.95;83.12;101521.38;4895791;29;20054;-78
2021/05/01 01:25:29;;;;;;;13.25;8.85;;;;;;;6.90;82.99;101510.41;4931068;29;20499;-79
2021/05/01 01:27:56;;;;;;;13.90;9.18;;;;;;;6.94;83.08;101505.81;4899320;29;20414;-79
2021/05/01 01:30:30;;;;;;;13.10;9.02;;;;;;;6.85;83.55;101499.44;4913584;29;20099;-80
2021/05/01 01:32:57;;;;;;;13.13;9.90;;;;;;;6.92;83.43;101511.13;4909639;29;20124;-79
2021/05/01 01:35:23;;;;;;;12.57;9.18;;;;;;;6.89;83.42;101505.28;4934801;29;20050;-79
2021/05/01 01:37:50;;;;;;;13.35;9.15;;;;;;;6.89;83.36;101502.69;4916614;29;20039;-79
2021/05/01 01:40:17;;;;;;;14.57;9.40;;;;;;;6.89;83.86;101513.94;4930879;29;20589;-79
2021/05/01 01:42:43;;;;;;;11.50;9.30;;;;;;;6.88;83.71;101507.06;4924177;29;20082;-80
2021/05/01 01:45:12;;;;;;;11.38;9.23;;;;;;;6.86;83.19;101501.13;4926448;29;20086;-80
2021/05/01 01:47:37;;;;;;;13.98;9.90;;;;;;;6.89;82.98;101500.91;4914579;29;20381;-79
2021/05/01 01:50:06;;;;;;;12.48;8.48;;;;;;;6.83;82.87;101488.28;4932595;29;20105;-81
2021/05/01 01:52:32;;;;;;;12.80;9.60;;;;;;;6.80;83.03;101491.94;4933837;29;20047;-80
2021/05/01 01:55:09;;;;;;;13.13;9.60;;;;;;;6.83;82.74;101499.53;4934570;28;20043;-80
2021/05/01 01:57:43;;;;;;;14.40;10.00;;;;;;;6.84;83.17;101500.41;4919221;29;20058;-79
2021/05/01 02:00:11;;;;;;;13.43;9.68;;;;;;;6.80;82.91;101491.13;4922100;29;20047;-82
2021/05/01 02:02:41;;;;;;;12.25;9.88;;;;;;;6.83;82.74;101490.91;4912722;29;20098;-80
2021/05/01 02:05:11;;;;;;;13.70;9.93;;;;;;;6.83;82.77;101496.94;4918582;29;20039;-80
2021/05/01 02:07:37;;;;;;;12.32;9.52;;;;;;;6.79;82.92;101499.88;4932490;28;20149;-80
2021/05/01 02:10:05;;;;;;;13.55;9.88;;;;;;;6.77;83.09;101491.31;4933915;29;20470;-80
2021/05/01 02:12:33;;;;;;;13.35;10.38;;;;;;;6.77;83.28;101496.53;4912113;29;20063;-79
2021/05/01 02:15:20;;;;;;;15.00;9.93;;;;;;;6.76;82.87;101495.69;4932345;29;20133;-81
2021/05/01 02:17:57;;;;;;;14.32;10.65;;;;;;;6.74;83.20;101494.97;4923543;29;20036;-80
2021/05/01 02:20:26;;;;;;;12.73;10.23;;;;;;;6.74;83.52;101496.72;4915851;29;20047;-79
2021/05/01 02:22:52;;;;;;;14.77;10.45;;;;;;;6.72;83.76;101493.38;4930992;29;20060;-80
2021/05/01 02:25:18;;;;;;;14.25;10.38;;;;;;;6.74;83.69;101486.28;4915318;29;20930;-80
2021/05/01 02:27:45;;;;;;;14.50;10.18;;;;;;;6.70;83.81;101495.28;4917368;29;20058;-76
2021/05/01 02:30:14;;;;;;;14.57;10.15;;;;;;;6.76;82.99;101500.06;4934626;29;20097;-81
2021/05/01 02:32:40;;;;;;;14.32;9.90;;;;;;;6.73;82.89;101497.69;4933467;29;20684;-81
2021/05/01 02:35:08;;;;;;;14.50;10.32;;;;;;;6.63;83.16;101482.66;4919644;29;20055;-79
2021/05/01 02:37:35;;;;;;;11.82;9.77;;;;;;;6.69;83.02;101491.00;4939275;29;20043;-80
2021/05/01 02:40:01;;;;;;;12.95;9.75;;;;;;;6.68;83.08;101492.75;4942122;28;20071;-79
2021/05/01 02:42:26;;;;;;;13.70;9.60;;;;;;;6.62;83.39;101474.94;4946116;29;20044;-79
2021/05/01 02:44:52;;;;;;;16.48;10.70;;;;;;;6.59;83.34;101480.34;4959883;29;20047;-81
2021/05/01 02:47:18;;;;;;;16.10;10.43;;;;;;;6.59;83.38;101488.16;4923946;29;20047;-78
2021/05/01 02:49:44;;;;;;;18.60;10.80;;;;;;;6.59;83.71;101480.34;4960248;28;20039;-78
2021/05/01 02:52:09;;;;;;;13.20;9.90;;;;;;;6.54;83.75;101474.63;4925108;29;20043;-80
2021/05/01 02:54:35;;;;;;;14.02;10.90;;;;;;;6.61;83.80;101479.31;4931988;29;20071;-81
2021/05/01 02:57:01;;;;;;;15.18;11.27;;;;;;;6.61;83.53;101468.03;4923075;29;20055;-81
2021/05/01 02:59:26;;;;;;;14.15;10.90;;;;;;;6.56;83.53;101468.34;4916902;29;20684;-79
2021/05/01 03:01:52;;;;;;;14.88;11.07;;;;;;;6.57;83.56;101466.56;4916123;29;20074;-79
2021/05/01 03:04:17;;;;;;;16.73;11.00;;;;;;;6.55;83.99;101471.06;4916284;29;20052;-81
2021/05/01 03:06:43;;;;;;;16.05;11.15;;;;;;;6.51;84.18;101469.59;4913357;29;20059;-78
2021/05/01 03:09:09;;;;;;;21.90;11.38;;;;;;;6.43;84.10;101454.47;4947181;28;20051;-79
2021/05/01 03:11:34;;;;;;;18.48;11.82;;;;;;;6.50;83.79;101462.69;4949575;29;20057;-78
2021/05/01 03:14:00;;;;;;;15.55;11.57;;;;;;;6.46;84.21;101449.06;4932763;29;20150;-80
2021/05/01 03:16:25;;;;;;;15.90;11.13;;;;;;;6.43;84.06;101452.69;4898928;29;20055;-79
2021/05/01 03:18:51;;;;;;;17.27;10.90;;;;;;;6.39;84.27;101445.19;4916302;28;20118;-81
2021/05/01 03:21:17;;;;;;;17.92;12.05;;;;;;;6.32;85.14;101444.75;4935480;28;20043;-80
2021/05/01 03:23:43;;;;;;;18.10;12.50;;;;;;;6.35;84.83;101439.34;4918663;29;20039;-80
2021/05/01 03:26:08;;;;;;;18.38;11.95;;;;;;;6.34;84.70;101444.66;4938151;29;20062;-80
2021/05/01 03:28:34;;;;;;;17.38;11.73;;;;;;;6.39;85.28;101447.81;4921701;29;20047;-77
2021/05/01 03:30:59;;;;;;;16.15;11.65;;;;;;;6.35;85.13;101433.31;4920725;29;20405;-79
2021/05/01 03:33:26;;;;;;;18.17;11.55;;;;;;;6.34;85.31;101437.66;4918801;29;20057;-79
2021/05/01 03:35:54;;;;;;;20.58;12.40;;;;;;;6.35;85.16;101438.53;4904331;29;20144;-78
2021/05/01 03:38:20;;;;;;;15.65;11.95;;;;;;;6.31;85.27;101447.47;4923303;29;20093;-79
2021/05/01 03:40:45;;;;;;;18.75;12.05;;;;;;;6.23;85.82;101434.94;4941923;29;20059;-80
2021/05/01 03:43:11;;;;;;;17.67;12.07;;;;;;;6.26;85.95;101444.34;4915184;29;20047;-81
2021/05/01 03:45:37;;;;;;;19.13;12.25;;;;;;;6.24;85.65;101442.66;4939011;29;20584;-81
2021/05/01 03:48:04;;;;;;;17.27;13.10;;;;;;;6.24;86.26;101447.03;4898909;29;20796;-80
2021/05/01 03:50:29;;;;;;;18.23;11.93;;;;;;;6.23;85.97;101445.34;4931902;29;20050;-81
2021/05/01 03:52:55;;;;;;;18.65;13.32;;;;;;;6.25;86.02;101448.69;4917629;29;20043;-78
2021/05/01 03:55:20;;;;;;;21.10;12.95;;;;;;;6.22;86.24;101448.91;4931575;29;20518;-81
2021/05/01 03:57:46;;;;;;;18.80;11.88;;;;;;;6.20;86.46;101443.81;4915907;29;20047;-81
2021/05/01 04:00:12;;;;;;;16.25;12.35;;;;;;;6.16;86.64;101444.09;4916104;29;20576;-81
2021/05/01 04:02:39;;;;;;;23.13;12.75;;;;;;;6.20;86.33;101438.59;4941009;29;20031;-75
2021/05/01 04:05:07;;;;;;;20.15;12.02;;;;;;;6.10;85.97;101426.25;4949088;29;20110;-80
2021/05/01 04:07:32;;;;;;;19.33;12.77;;;;;;;6.15;85.67;101437.22;4925583;28;20043;-81
2021/05/01 04:09:58;;;;;;;18.27;12.57;;;;;;;6.20;86.07;101437.75;4904449;29;20035;-79
2021/05/01 04:12:23;;;;;;;16.70;11.70;;;;;;;6.22;85.92;101447.13;4920865;29;20175;-81
2021/05/01 04:14:49;;;;;;;18.65;13.05;;;;;;;6.24;85.82;101440.06;4918950;28;20117;-79
2021/05/01 04:17:15;;;;;;;17.92;12.18;;;;;;;6.17;85.73;101430.13;4919308;28;20055;-79
2021/05/01 04:19:40;;;;;;;18.20;13.02;;;;;;;6.23;85.54;101441.00;4935704;29;20039;-79
2021/05/01 04:22:06;;;;;;;18.67;12.60;;;;;;;6.22;85.08;101439.31;4919521;28;20050;-78
2021/05/01 04:24:32;;;;;;;18.15;12.57;;;;;;;6.17;84.95;101438.78;4935549;29;20035;-79
2021/05/01 04:26:57;;;;;;;18.30;12.27;;;;;;;6.19;84.72;101441.28;4936613;29;20047;-80
2021/05/01 04:29:23;;;;;;;17.77;12.27;;;;;;;6.16;85.53;101438.88;4926873;29;20489;-80
2021/05/01 04:31:49;;;;;;;21.50;11.98;;;;;;;6.18;84.99;101439.63;4927823;29;20074;-78
2021/05/01 04:34:15;;;;;;;18.85;11.82;;;;;;;6.20;84.75;101443.81;4940342;29;20043;-81
2021/05/01 04:36:40;;;;;;;14.95;11.65;;;;;;;6.18;85.01;101447.47;4919751;29;20047;-79
2021/05/01 04:39:07;;;;;;;17.15;11.90;;;;;;;6.19;84.81;101459.53;4935120;29;20054;-79
2021/05/01 04:41:33;;;;;;;17.95;11.18;;;;;;;6.14;84.31;101454.63;4920474;29;20978;-79
2021/05/01 04:43:59;;;;;;;19.02;11.77;;;;;;;6.18;84.93;101461.31;4918957;29;20055;-79
2021/05/01 04:46:24;;;;;;;18.83;11.35;;;;;;;6.22;84.17;101459.34;4904828;29;20511;-80
2021/05/01 04:48:50;;;;;;;19.45;11.52;;;;;;;6.12;83.95;101453.03;4935088;28;20043;-81
2021/05/01 04:51:18;;;;;;;15.77;10.77;;;;;;;6.13;84.59;101446.91;4934829;29;20069;-79
2021/05/01 04:53:43;;;;;;;14.88;11.32;;;;;;;6.08;83.70;101449.81;4920043;29;20059;-80
2021/05/01 04:56:09;;;;;;;17.27;11.45;;;;;;;6.00;84.15;101437.28;4952045;29;20524;-81
2021/05/01 04:58:34;;;;;;;16.92;11.80;;;;;;;6.08;84.15;101457.63;4915808;29;20048;-81
2021/05/01 05:01:00;;;;;;;17.00;10.98;;;;;;;6.09;84.12;101451.47;4927080;29;20126;-81
2021/05/01 05:03:26;;;;;;;16.13;10.75;;;;;;;6.19;83.33;101467.34;4936332;29;20119;-79
2021/05/01 05:05:51;;;;;;;18.10;11.07;;;;;;;6.16;82.31;101462.31;4915571;29;20236;-80
2021/05/01 05:08:17;;;;;;;15.88;10.68;;;;;;;6.13;82.98;101467.75;4916516;29;20055;-81
2021/05/01 05:10:42;;;;;;;16.70;10.38;;;;;;;6.13;82.03;101471.19;4921245;29;20043;-79
2021/05/01 05:13:08;;;;;;;19.90;10.32;;;;;;;6.19;81.97;101475.97;4934278;29;20074;-80
2021/05/01 05:15:34;;;;;;;23.20;10.95;;;;;;;6.17;81.89;101472.66;4900340;29;20048;-81
2021/05/01 05:17:59;;;;;;;16.98;9.73;;;;;;;6.13;81.79;101472.97;4931165;29;20043;-78
2021/05/01 05:20:25;;;;;;;11.93;9.25;;;;;;;6.16;81.72;101471.00;4955025;28;20071;-78
2021/05/01 05:22:50;;;;;;;15.75;10.00;;;;;;;6.22;81.65;101478.41;4919436;29;20053;-80
2021/05/01 05:25:16;;;;;;;13.82;9.85;;;;;;;6.14;82.40;101466.81;4915394;29;20071;-79
2021/05/01 05:27:42;;;;;;;12.85;9.32;;;;;;;6.25;81.31;101474.75;4932009;29;20051;-80
2021/05/01 05:30:08;;;;;;;15.45;9.18;;;;;;;6.30;81.02;101485.72;4927561;29;20082;-80
2021/05/01 05:32:33;;;;;;;15.25;9.48;;;;;;;6.34;80.94;101475.94;4918441;28;20089;-79
2021/05/01 05:34:59;;;;;;;13.43;8.40;;;;;;;6.33;79.77;101467.28;4933757;29;20071;-79
2021/05/01 05:37:24;;;;;;;12.57;8.05;;;;;;;6.38;80.00;101478.22;4917251;29;20094;-79
2021/05/01 05:39:50;;;;;;;13.63;8.93;;;;;;;6.41;80.11;101480.63;4934323;29;20031;-80
2021/05/01 05:42:17;;;;;;;12.68;8.50;;;;;;;6.45;78.94;101478.66;4934810;29;20047;-81
2021/05/01 05:44:45;;;;;;;13.80;8.65;;;;;;;6.39;79.31;101471.25;4935335;29;20039;-79
2021/05/01 05:47:12;;;;;;;13.20;8.60;;;;;;;6.38;79.19;101482.59;4931720;28;20051;-79
2021/05/01 05:49:38;;;;;;;14.30;8.77;;;;;;;6.25;79.38;101474.75;4908017;29;20046;-81
2021/05/01 05:52:04;;;;;;;14.93;9.32;;;;;;;6.25;79.87;101482.56;4912420;29;20087;-81
2021/05/01 05:54:29;;;;;;;14.02;8.95;;;;;;;6.32;79.68;101488.22;4932085;29;20098;-79
2021/05/01 05:56:56;;;;;;;17.15;8.82;;;;;;;6.35;79.74;101480.22;4916446;29;20060;-81
2021/05/01 05:59:21;;;;;;;13.82;8.68;;;;;;;6.37;80.11;101478.34;4917477;29;20050;-80
2021/05/01 06:01:48;;;;;;;12.82;8.48;;;;;;;6.50;79.31;101489.63;4915756;28;20051;-80
2021/05/01 06:04:24;;;;;;;12.63;8.20;;;;;;;6.47;79.17;101487.22;4899778;29;20518;-79
2021/05/01 06:07:10;;;;;;;15.45;8.90;;;;;;;6.51;79.31;101493.88;4923526;29;20039;-77
2021/05/01 06:09:38;;;;;;;17.70;8.52;;;;;;;6.42;78.48;101479.72;4917802;29;20399;-81
2021/05/01 06:12:06;;;;;;;15.68;8.70;;;;;;;6.43;79.44;101478.75;4929550;28;20063;-78
2021/05/01 06:14:32;;;;;;;12.80;8.93;;;;;;;6.52;78.99;101485.13;4937839;29;20052;-79
2021/05/01 06:16:59;;;;;;;14.50;8.73;;;;;;;6.56;79.24;101488.38;4925275;29;20141;-80
2021/05/01 06:19:25;;;;;;;13.77;8.80;;;;;;;6.52;78.79;101484.31;4925278;29;20055;-79
2021/05/01 06:21:51;;;;;;;15.48;8.98;;;;;;;6.65;78.56;101490.38;4916516;29;20071;-79
2021/05/01 06:24:17;;;;;;;14.23;9.43;;;;;;;6.65;78.96;101486.91;4950517;29;20039;-80
2021/05/01 06:26:44;;;;;;;13.82;8.90;;;;;;;6.62;78.39;101474.94;4934857;29;20039;-79
2021/05/01 06:29:10;;;;;;;13.88;8.70;;;;;;;6.65;78.41;101489.53;4918227;29;20078;-80
2021/05/01 06:31:37;;;;;;;13.68;8.88;;;;;;;6.66;78.57;101481.59;4901807;29;20065;-81
2021/05/01 06:34:04;;;;;;;14.52;8.60;;;;;;;6.66;77.69;101476.38;4934206;29;20831;-80
2021/05/01 06:36:32;;;;;;;17.52;9.20;;;;;;;6.70;78.00;101469.19;4932826;29;20042;-80
2021/05/01 06:39:03;;;;;;;14.10;8.45;;;;;;;6.76;78.42;101471.38;4916188;29;20130;-80
2021/05/01 06:41:39;;;;;;;13.88;8.02;;;;;;;6.79;78.05;101463.38;4928446;29;20110;-80
2021/05/01 06:44:10;;;;;;;14.77;8.82;;;;;;;6.83;77.34;101455.22;4941355;28;20035;-81
2021/05/01 06:46:39;;;;;;;18.60;8.90;;;;;;;6.94;77.78;101459.69;4917042;28;20517;-81
2021/05/01 06:49:08;;;;;;;13.25;8.25;;;;;;;7.11;77.57;101468.16;4931097;29;20517;-80
2021/05/01 06:51:39;;;;;;;13.85;8.10;;;;;;;7.19;76.47;101471.03;4906984;28;20058;-79
2021/05/01 06:54:09;;;;;;;13.93;8.25;;;;;;;7.21;76.99;101482.22;4917672;29;20075;-79
2021/05/01 06:56:40;;;;;;;13.63;8.65;;;;;;;7.32;77.08;101477.06;4913197;29;20522;-80
2021/05/01 06:59:07;;;;;;;13.68;8.55;;;;;;;7.32;77.08;101479.69;4926855;29;20052;-80
2021/05/01 07:01:34;;;;;;;12.07;8.60;;;;;;;7.27;75.45;101468.75;4912651;29;20057;-80
2021/05/01 07:04:02;;;;;;;13.60;9.13;;;;;;;7.30;76.35;101480.75;4929136;29;20494;-79
2021/05/01 07:06:31;;;;;;;12.43;8.30;;;;;;;7.32;76.83;101476.25;4913372;29;20039;-80
2021/05/01 07:09:03;;;;;;;12.60;8.13;;;;;;;7.32;76.37;101473.66;4918759;29;20469;-78
2021/05/01 07:11:35;;;;;;;13.40;9.02;;;;;;;7.39;76.48;101485.31;4949935;29;20054;-78
2021/05/01 07:14:03;;;;;;;13.25;8.35;;;;;;;7.41;76.19;101488.66;4942453;29;20054;-79
2021/05/01 07:16:29;;;;;;;12.65;8.40;;;;;;;7.44;76.40;101496.28;4934722;29;20086;-78
2021/05/01 07:18:56;;;;;;;13.38;8.48;;;;;;;7.47;76.57;101484.78;4920407;29;20133;-80
2021/05/01 07:21:24;;;;;;;11.40;8.30;;;;;;;7.50;76.30;101500.25;4948888;29;20078;-81
2021/05/01 07:23:49;;;;;;;13.18;8.32;;;;;;;7.48;76.19;101497.75;4931751;29;20074;-82
2021/05/01 07:26:19;;;;;;;15.70;8.93;;;;;;;7.45;76.71;101497.13;4916823;29;20047;-79
2021/05/01 07:28:49;;;;;;;13.80;8.68;;;;;;;7.49;76.33;101502.00;4928928;29;20051;-79
2021/05/01 07:31:29;;;;;;;14.23;9.02;;;;;;;7.51;76.76;101489.66;4936056;28;22822;-80
2021/05/01 07:33:57;;;;;;;13.25;7.68;;;;;;;7.57;77.05;101488.41;4957651;28;20056;-78
2021/05/01 07:36:29;;;;;;;13.45;9.10;;;;;;;7.53;76.84;101495.63;4931905;28;20051;-79
2021/05/01 07:38:59;;;;;;;12.27;8.73;;;;;;;7.60;77.92;101490.81;4925191;29;20147;-79
2021/05/01 07:41:25;;;;;;;13.07;9.57;;;;;;;7.76;76.92;101500.97;4929791;29;20079;-81
2021/05/01 07:43:53;;;;;;;15.25;9.15;;;;;;;7.85;77.25;101495.09;4935432;29;20399;-79
2021/05/01 07:46:23;;;;;;;12.18;9.15;;;;;;;7.97;76.69;101496.03;4933423;29;20047;-79
2021/05/01 07:48:50;;;;;;;12.10;8.25;;;;;;;8.01;75.79;101491.41;4936343;29;20429;-80
2021/05/01 07:51:16;;;;;;;13.68;9.38;;;;;;;8.05;75.50;101498.91;4940157;29;20078;-78
2021/05/01 07:53:43;;;;;;;14.55;8.55;;;;;;;7.99;75.73;101496.75;4949142;29;20051;-80
2021/05/01 07:56:09;;;;;;;16.00;8.60;;;;;;;7.99;76.57;101479.28;4936123;29;20047;-79
2021/05/01 07:58:35;;;;;;;12.75;8.20;;;;;;;8.11;75.36;101480.16;4918521;29;20055;-80
2021/05/01 08:01:01;;;;;;;15.63;9.55;;;;;;;8.16;75.25;101483.28;4953767;28;20421;-77
2021/05/01 08:03:26;;;;;;;14.85;9.07;;;;;;;8.35;75.04;101481.91;4919703;29;20047;-79
2021/05/01 08:05:52;;;;;;;16.05;8.80;;;;;;;8.60;75.20;101487.97;4937491;29;20035;-78
2021/05/01 08:08:18;;;;;;;14.70;8.88;;;;;;;8.71;73.16;101480.97;4935070;29;20044;-79
2021/05/01 08:10:44;;;;;;;17.15;8.57;;;;;;;8.79;73.87;101482.16;4917394;28;20094;-78
2021/05/01 08:13:22;;;;;;;14.93;8.45;;;;;;;8.88;73.07;101466.59;4920069;29;20725;-77
2021/05/01 08:15:49;;;;;;;11.65;8.18;;;;;;;8.84;73.12;101467.78;4932694;29;20039;-79
2021/05/01 08:18:14;;;;;;;12.05;8.07;;;;;;;8.83;72.67;101468.72;4933181;29;20864;-79
2021/05/01 08:20:40;;;;;;;16.80;8.18;;;;;;;8.92;72.24;101475.03;4919255;29;20134;-79
2021/05/01 08:23:05;;;;;;;12.93;8.80;;;;;;;9.13;74.02;101476.00;4914357;29;20059;-80
2021/05/01 08:25:31;;;;;;;9.52;7.82;;;;;;;9.28;71.10;101466.13;4932897;29;20040;-78
2021/05/01 08:27:57;;;;;;;13.70;8.40;;;;;;;9.28;71.36;101453.03;4915226;29;20179;-77
2021/05/01 08:30:22;;;;;;;12.57;8.18;;;;;;;9.30;70.97;101464.19;4950954;28;20039;-77
2021/05/01 08:32:48;;;;;;;12.52;7.75;;;;;;;9.17;71.01;101455.66;4917162;29;20067;-77
2021/05/01 08:35:14;;;;;;;14.00;8.20;;;;;;;9.21;71.85;101456.25;4915194;29;20054;-76
2021/05/01 08:37:41;;;;;;;12.05;7.97;;;;;;;9.32;71.18;101467.56;4932568;29;20151;-80
2021/05/01 08:40:08;;;;;;;13.82;8.13;;;;;;;9.33;71.73;101450.06;4911568;29;20046;-77
2021/05/01 08:42:35;;;;;;;10.88;7.97;;;;;;;9.42;71.52;101458.94;4926239;29;20406;-79
2021/05/01 08:45:06;;;;;;;15.40;8.38;;;;;;;9.57;70.36;101467.38;4930232;29;20054;-77
2021/05/01 08:47:34;;;;;;;15.80;8.38;;;;;;;9.75;70.21;101471.16;4933426;28;20506;-77
2021/05/01 08:50:04;;;;;;;12.93;8.05;;;;;;;9.94;68.89;101467.88;4930757;29;20039;-78
2021/05/01 08:52:30;;;;;;;11.77;8.23;;;;;;;10.19;69.17;101461.47;4945795;28;20646;-78
2021/05/01 08:54:56;;;;;;;9.20;7.28;;;;;;;10.38;68.28;101457.34;4948517;28;20147;-78
2021/05/01 08:57:28;;;;;;;12.30;7.95;;;;;;;10.50;67.29;101457.16;4918007;28;20517;-78
2021/05/01 08:59:53;;;;;;;13.73;8.30;;;;;;;10.72;65.79;101460.63;4916601;29;20039;-78
2021/05/01 09:02:21;;;;;;;9.68;7.38;;;;;;;10.70;65.53;101452.88;4920727;29;20035;-77
2021/05/01 09:04:49;;;;;;;12.43;7.88;;;;;;;10.82;66.33;101447.53;4953073;29;20481;-78
2021/05/01 09:07:17;;;;;;;9.77;7.63;;;;;;;10.51;65.27;101444.91;4953143;28;20139;-77
2021/05/01 09:09:51;;;;;;;11.15;6.97;;;;;;;10.43;65.42;101437.66;4937073;29;20429;-79
2021/05/01 09:12:44;;;;;;;10.77;7.28;;;;;;;10.54;66.35;101442.00;4917247;29;20055;-75
2021/05/01 09:15:12;;;;;;;8.73;7.13;;;;;;;10.56;64.82;101437.44;4933206;29;20506;-78
2021/05/01 09:17:39;;;;;;;11.50;7.68;;;;;;;10.80;65.75;101436.34;4923500;28;20134;-77
2021/05/01 09:20:11;;;;;;;12.25;7.50;;;;;;;10.75;63.93;101446.41;4933938;29;20039;-78
2021/05/01 09:23:08;;;;;;;10.45;7.90;;;;;;;10.76;65.08;101433.16;4919503;29;20152;-75
2021/05/01 09:26:01;;;;;;;12.02;7.47;;;;;;;11.09;65.39;101433.81;4921194;29;20048;-79
2021/05/01 09:28:56;;;;;;;9.95;7.03;;;;;;;11.29;63.89;101435.56;4934259;29;20043;-80
2021/05/01 09:31:21;;;;;;;11.32;7.82;;;;;;;11.20;63.44;101438.16;4933874;29;20070;-78
2021/05/01 09:33:52;;;;;;;11.63;7.57;;;;;;;11.35;64.30;101439.44;4924388;29;20498;-77
2021/05/01 09:36:20;;;;;;;11.10;6.90;;;;;;;11.29;63.89;101435.56;4932060;29;20098;-77
2021/05/01 09:38:58;;;;;;;8.27;6.75;;;;;;;11.53;62.60;101434.38;4916200;29;20042;-77
2021/05/01 09:41:26;;;;;;;11.27;7.55;;;;;;;11.64;62.23;101433.41;4905188;29;20056;-77
2021/05/01 09:44:04;;;;;;;8.68;7.30;;;;;;;11.47;61.66;101435.75;4902829;29;20122;-79
2021/05/01 09:46:52;;;;;;;10.80;7.53;;;;;;;11.60;63.21;101435.50;4933972;29;20779;-79
2021/05/01 09:49:22;;;;;;;10.48;7.28;;;;;;;11.96;61.28;101435.81;4928930;29;20564;-77
2021/05/01 09:51:53;;;;;;;11.45;7.50;;;;;;;12.01;63.40;101438.84;4950109;28;20101;-79
2021/05/01 09:54:30;;;;;;;11.30;7.63;;;;;;;11.86;60.67;101440.19;4915412;29;20050;-80
2021/05/01 09:57:05;;;;;;;11.48;7.80;;;;;;;11.80;62.29;101435.50;4914084;29;20042;-78
2021/05/01 09:59:43;;;;;;;11.68;7.78;;;;;;;11.78;61.10;101432.19;4947154;28;20182;-77
2021/05/01 10:02:11;;;;;;;10.32;7.60;;;;;;;11.90;61.03;101438.97;4936249;29;20185;-79
2021/05/01 10:04:37;;;;;;;10.70;7.90;;;;;;;12.06;60.18;101444.53;4912666;29;20518;-77
2021/05/01 10:07:05;;;;;;;12.45;8.02;;;;;;;12.56;59.42;101434.75;4929292;29;20047;-80
2021/05/01 10:09:36;;;;;;;11.05;7.80;;;;;;;12.83;59.62;101434.81;4913496;28;20039;-77
2021/05/01 10:12:07;;;;;;;8.68;7.05;;;;;;;12.90;58.05;101421.06;4930112;29;20044;-79
2021/05/01 10:14:40;;;;;;;9.35;7.50;;;;;;;12.68;58.10;101420.47;4899541;29;20126;-73
2021/05/01 10:17:06;;;;;;;12.63;8.32;;;;;;;12.75;59.64;101408.41;4935153;29;20065;-81
2021/05/01 10:19:51;;;;;;;10.52;8.13;;;;;;;12.56;60.21;101405.81;4938092;29;20035;-77
2021/05/01 10:22:31;;;;;;;9.68;8.13;;;;;;;12.69;58.73;101405.50;4927464;29;20042;-79
2021/05/01 10:25:06;;;;;;;11.60;7.60;;;;;;;13.11;58.84;101395.34;4944600;29;20102;-79
2021/05/01 10:27:47;;;;;;;12.27;7.85;;;;;;;13.28;58.85;101388.44;4916368;28;20510;-78
2021/05/01 10:30:28;;;;;;;12.95;7.88;;;;;;;13.39;56.98;101376.88;4925956;29;20047;-78
2021/05/01 10:33:08;;;;;;;9.57;7.50;;;;;;;13.26;55.84;101374.59;4933698;29;20052;-79
2021/05/01 10:35:34;;;;;;;8.65;7.47;;;;;;;13.22;55.76;101378.47;4915201;29;20039;-78
2021/05/01 10:38:02;;;;;;;9.38;7.85;;;;;;;13.49;56.39;101368.94;4949910;28;20043;-78
2021/05/01 10:40:44;;;;;;;10.20;8.07;;;;;;;13.53;55.47;101371.09;4933629;29;20043;-79
2021/05/01 10:43:15;;;;;;;10.45;7.97;;;;;;;13.00;56.06;101366.56;4929947;29;20052;-79
2021/05/01 10:45:51;;;;;;;8.45;7.28;;;;;;;13.49;54.30;101361.84;4927393;29;20042;-79
2021/05/01 10:48:17;;;;;;;10.95;7.50;;;;;;;13.68;54.26;101357.41;4917244;29;20059;-80
2021/05/01 10:50:44;;;;;;;9.90;7.55;;;;;;;13.71;55.98;101359.72;4917563;29;20051;-79
2021/05/01 10:53:19;;;;;;;8.57;7.35;;;;;;;13.61;54.88;101357.16;4935202;29;20772;-78
2021/05/01 10:55:47;;;;;;;9.50;7.43;;;;;;;14.08;54.76;101361.31;4915301;29;20043;-79
2021/05/01 10:58:29;;;;;;;9.00;7.00;;;;;;;14.37;52.91;101355.72;4931445;29;20050;-80
2021/05/01 11:00:55;;;;;;;8.52;6.85;;;;;;;14.41;51.89;101360.53;4927662;29;20115;-79
2021/05/01 11:03:22;;;;;;;8.57;7.68;;;;;;;14.54;50.74;101356.63;4927452;29;20526;-79
2021/05/01 11:05:49;;;;;;;8.93;7.07;;;;;;;14.65;52.41;101356.38;4930650;29;20043;-79
2021/05/01 11:08:29;;;;;;;9.90;7.88;;;;;;;14.51;51.19;101355.16;4930634;28;20083;-80
2021/05/01 11:10:57;;;;;;;8.90;7.10;;;;;;;14.71;51.20;101360.22;4915382;29;20409;-81
2021/05/01 11:13:28;;;;;;;10.20;6.95;;;;;;;14.43;50.60;101356.91;4915921;28;20054;-78
2021/05/01 11:15:59;;;;;;;8.02;7.22;;;;;;;13.76;52.68;101358.28;4911300;29;20047;-80
2021/05/01 11:18:37;;;;;;;7.95;6.85;;;;;;;13.62;53.58;101358.84;4940885;28;20103;-78
2021/05/01 11:21:05;;;;;;;10.18;7.00;;;;;;;13.51;54.72;101365.16;4935252;29;20036;-80
2021/05/01 11:23:35;;;;;;;12.15;7.13;;;;;;;13.41;53.28;101364.38;4896274;29;20516;-78
2021/05/01 11:26:01;;;;;;;8.10;6.40;;;;;;;13.58;54.87;101363.56;4924326;29;20539;-78
2021/05/01 11:28:27;;;;;;;10.10;7.68;;;;;;;13.33;53.27;101359.84;4932129;29;20063;-76